sensor_id;sensor_type;location;lat;lon;timestamp;P1;durP1;ratioP1;P2;durP2;ratioP2
9848;SDS011;4963;51.444;6.528;2024-01-30T00:01:19;13.57;;;9.37;;
9848;SDS011;4963;51.444;6.528;2024-01-30T00:03:46;16.37;;;9.87;;
9848;SDS011;4963;51.444;6.528;2024-01-30T00:06:12;11.83;;;8.73;;
9848;SDS011;4963;51.444;6.528;2024-01-30T00:08:41;13.67;;;9.33;;
9848;SDS011;4963;51.444;6.528;2024-01-30T00:11:11;11.30;;;8.77;;
9848;SDS011;4963;51.444;6.528;2024-01-30T00:13:38;14.23;;;9.60;;
9848;SDS011;4963;51.444;6.528;2024-01-30T00:16:05;14.20;;;9.37;;
9848;SDS011;4963;51.444;6.528;2024-01-30T00:18:33;12.53;;;9.13;;
9848;SDS011;4963;51.444;6.528;2024-01-30T00:21:00;11.70;;;8.53;;
9848;SDS011;4963;51.444;6.528;2024-01-30T00:23:28;12.87;;;9.53;;
9848;SDS011;4963;51.444;6.528;2024-01-30T00:25:56;14.53;;;9.73;;
9848;SDS011;4963;51.444;6.528;2024-01-30T00:28:23;13.77;;;9.13;;
9848;SDS011;4963;51.444;6.528;2024-01-30T00:30:50;14.23;;;9.23;;
9848;SDS011;4963;51.444;6.528;2024-01-30T00:33:17;14.60;;;9.80;;
9848;SDS011;4963;51.444;6.528;2024-01-30T00:35:43;12.70;;;9.33;;
9848;SDS011;4963;51.444;6.528;2024-01-30T00:38:10;13.47;;;9.70;;
9848;SDS011;4963;51.444;6.528;2024-01-30T00:40:37;15.03;;;10.17;;
9848;SDS011;4963;51.444;6.528;2024-01-30T00:43:05;12.37;;;9.43;;
9848;SDS011;4963;51.444;6.528;2024-01-30T00:45:32;14.00;;;10.37;;
9848;SDS011;4963;51.444;6.528;2024-01-30T00:47:59;12.73;;;9.53;;
9848;SDS011;4963;51.444;6.528;2024-01-30T00:50:26;11.97;;;9.80;;
9848;SDS011;4963;51.444;6.528;2024-01-30T00:52:53;15.87;;;10.20;;
9848;SDS011;4963;51.444;6.528;2024-01-30T00:55:20;16.80;;;9.77;;
9848;SDS011;4963;51.444;6.528;2024-01-30T00:57:47;11.27;;;9.40;;
9848;SDS011;4963;51.444;6.528;2024-01-30T01:00:16;15.00;;;9.30;;
9848;SDS011;4963;51.444;6.528;2024-01-30T01:02:43;16.53;;;9.50;;
9848;SDS011;4963;51.444;6.528;2024-01-30T01:05:10;15.73;;;9.63;;
9848;SDS011;4963;51.444;6.528;2024-01-30T01:07:37;13.40;;;9.43;;
9848;SDS011;4963;51.444;6.528;2024-01-30T01:10:05;14.03;;;10.13;;
9848;SDS011;4963;51.444;6.528;2024-01-30T01:12:33;15.53;;;10.47;;
9848;SDS011;4963;51.444;6.528;2024-01-30T01:15:00;12.67;;;10.00;;
9848;SDS011;4963;51.444;6.528;2024-01-30T01:17:28;13.70;;;9.50;;
9848;SDS011;4963;51.444;6.528;2024-01-30T01:19:56;13.17;;;9.93;;
9848;SDS011;4963;51.444;6.528;2024-01-30T01:22:23;15.03;;;10.87;;
9848;SDS011;4963;51.444;6.528;2024-01-30T01:24:50;15.27;;;10.13;;
9848;SDS011;4963;51.444;6.528;2024-01-30T01:27:17;15.37;;;10.60;;
9848;SDS011;4963;51.444;6.528;2024-01-30T01:29:44;10.70;;;9.53;;
9848;SDS011;4963;51.444;6.528;2024-01-30T01:32:11;13.87;;;9.73;;
9848;SDS011;4963;51.444;6.528;2024-01-30T01:34:39;14.90;;;9.83;;
9848;SDS011;4963;51.444;6.528;2024-01-30T01:37:06;15.33;;;10.97;;
9848;SDS011;4963;51.444;6.528;2024-01-30T01:39:33;13.70;;;9.97;;
9848;SDS011;4963;51.444;6.528;2024-01-30T01:42:00;12.23;;;9.43;;
9848;SDS011;4963;51.444;6.528;2024-01-30T01:44:27;17.90;;;10.40;;
9848;SDS011;4963;51.444;6.528;2024-01-30T01:46:54;13.70;;;9.47;;
9848;SDS011;4963;51.444;6.528;2024-01-30T01:49:22;15.17;;;10.40;;
9848;SDS011;4963;51.444;6.528;2024-01-30T01:51:51;13.10;;;9.77;;
9848;SDS011;4963;51.444;6.528;2024-01-30T01:54:21;14.70;;;10.70;;
9848;SDS011;4963;51.444;6.528;2024-01-30T01:56:49;17.90;;;10.43;;
9848;SDS011;4963;51.444;6.528;2024-01-30T01:59:17;15.17;;;9.97;;
9848;SDS011;4963;51.444;6.528;2024-01-30T02:01:44;15.23;;;10.17;;
9848;SDS011;4963;51.444;6.528;2024-01-30T02:04:14;12.87;;;10.20;;
9848;SDS011;4963;51.444;6.528;2024-01-30T02:06:41;14.23;;;9.73;;
9848;SDS011;4963;51.444;6.528;2024-01-30T02:09:10;16.53;;;11.10;;
9848;SDS011;4963;51.444;6.528;2024-01-30T02:11:37;14.27;;;10.17;;
9848;SDS011;4963;51.444;6.528;2024-01-30T02:14:04;12.07;;;10.33;;
9848;SDS011;4963;51.444;6.528;2024-01-30T02:16:31;17.03;;;10.07;;
9848;SDS011;4963;51.444;6.528;2024-01-30T02:18:58;13.90;;;10.83;;
9848;SDS011;4963;51.444;6.528;2024-01-30T02:21:26;13.93;;;10.43;;
9848;SDS011;4963;51.444;6.528;2024-01-30T02:23:54;16.17;;;10.30;;
9848;SDS011;4963;51.444;6.528;2024-01-30T02:26:21;17.30;;;10.23;;
9848;SDS011;4963;51.444;6.528;2024-01-30T02:28:48;18.00;;;11.13;;
9848;SDS011;4963;51.444;6.528;2024-01-30T02:31:15;13.03;;;10.10;;
9848;SDS011;4963;51.444;6.528;2024-01-30T02:33:42;16.37;;;11.03;;
9848;SDS011;4963;51.444;6.528;2024-01-30T02:36:08;15.40;;;10.70;;
9848;SDS011;4963;51.444;6.528;2024-01-30T02:38:37;14.00;;;10.90;;
9848;SDS011;4963;51.444;6.528;2024-01-30T02:41:03;13.93;;;9.73;;
9848;SDS011;4963;51.444;6.528;2024-01-30T02:43:30;15.37;;;10.37;;
9848;SDS011;4963;51.444;6.528;2024-01-30T02:45:57;13.03;;;10.30;;
9848;SDS011;4963;51.444;6.528;2024-01-30T02:48:25;16.37;;;11.50;;
9848;SDS011;4963;51.444;6.528;2024-01-30T02:50:52;15.67;;;9.67;;
9848;SDS011;4963;51.444;6.528;2024-01-30T02:53:19;13.43;;;10.97;;
9848;SDS011;4963;51.444;6.528;2024-01-30T02:55:47;19.93;;;11.97;;
9848;SDS011;4963;51.444;6.528;2024-01-30T02:58:14;16.97;;;11.07;;
9848;SDS011;4963;51.444;6.528;2024-01-30T03:00:41;16.13;;;11.43;;
9848;SDS011;4963;51.444;6.528;2024-01-30T03:03:08;14.93;;;11.23;;
9848;SDS011;4963;51.444;6.528;2024-01-30T03:05:36;14.63;;;11.37;;
9848;SDS011;4963;51.444;6.528;2024-01-30T03:08:03;17.83;;;12.20;;
9848;SDS011;4963;51.444;6.528;2024-01-30T03:10:31;15.67;;;11.83;;
9848;SDS011;4963;51.444;6.528;2024-01-30T03:12:59;19.83;;;12.23;;
9848;SDS011;4963;51.444;6.528;2024-01-30T03:15:26;16.87;;;12.50;;
9848;SDS011;4963;51.444;6.528;2024-01-30T03:17:53;22.43;;;13.13;;
9848;SDS011;4963;51.444;6.528;2024-01-30T03:20:20;16.83;;;12.43;;
9848;SDS011;4963;51.444;6.528;2024-01-30T03:22:47;19.20;;;12.60;;
9848;SDS011;4963;51.444;6.528;2024-01-30T03:25:13;16.67;;;12.30;;
9848;SDS011;4963;51.444;6.528;2024-01-30T03:27:40;16.30;;;11.97;;
9848;SDS011;4963;51.444;6.528;2024-01-30T03:30:09;18.40;;;13.33;;
9848;SDS011;4963;51.444;6.528;2024-01-30T03:32:36;17.37;;;12.03;;
9848;SDS011;4963;51.444;6.528;2024-01-30T03:35:03;15.83;;;12.17;;
9848;SDS011;4963;51.444;6.528;2024-01-30T03:37:30;21.73;;;12.37;;
9848;SDS011;4963;51.444;6.528;2024-01-30T03:39:57;17.70;;;12.13;;
9848;SDS011;4963;51.444;6.528;2024-01-30T03:42:24;18.27;;;12.90;;
9848;SDS011;4963;51.444;6.528;2024-01-30T03:44:51;16.47;;;11.73;;
9848;SDS011;4963;51.444;6.528;2024-01-30T03:47:20;17.27;;;11.23;;
9848;SDS011;4963;51.444;6.528;2024-01-30T03:49:47;16.93;;;11.37;;
9848;SDS011;4963;51.444;6.528;2024-01-30T03:52:14;20.63;;;12.17;;
9848;SDS011;4963;51.444;6.528;2024-01-30T03:54:41;19.03;;;12.47;;
9848;SDS011;4963;51.444;6.528;2024-01-30T03:57:08;15.10;;;11.30;;
9848;SDS011;4963;51.444;6.528;2024-01-30T03:59:35;18.60;;;11.37;;
9848;SDS011;4963;51.444;6.528;2024-01-30T04:02:02;22.60;;;12.53;;
9848;SDS011;4963;51.444;6.528;2024-01-30T04:04:30;14.00;;;11.10;;
9848;SDS011;4963;51.444;6.528;2024-01-30T04:06:57;18.10;;;13.07;;
9848;SDS011;4963;51.444;6.528;2024-01-30T04:09:24;18.37;;;12.37;;
9848;SDS011;4963;51.444;6.528;2024-01-30T04:11:53;13.13;;;11.03;;
9848;SDS011;4963;51.444;6.528;2024-01-30T04:14:20;19.97;;;12.63;;
9848;SDS011;4963;51.444;6.528;2024-01-30T04:16:47;17.17;;;12.47;;
9848;SDS011;4963;51.444;6.528;2024-01-30T04:19:14;19.80;;;12.27;;
9848;SDS011;4963;51.444;6.528;2024-01-30T04:21:42;18.40;;;12.60;;
9848;SDS011;4963;51.444;6.528;2024-01-30T04:24:10;15.47;;;13.27;;
9848;SDS011;4963;51.444;6.528;2024-01-30T04:26:37;18.77;;;13.67;;
9848;SDS011;4963;51.444;6.528;2024-01-30T04:29:06;16.37;;;12.63;;
9848;SDS011;4963;51.444;6.528;2024-01-30T04:31:35;20.93;;;12.43;;
9848;SDS011;4963;51.444;6.528;2024-01-30T04:34:02;15.87;;;12.43;;
9848;SDS011;4963;51.444;6.528;2024-01-30T04:36:29;17.07;;;11.70;;
9848;SDS011;4963;51.444;6.528;2024-01-30T04:38:57;16.10;;;11.93;;
9848;SDS011;4963;51.444;6.528;2024-01-30T04:41:24;15.33;;;11.43;;
9848;SDS011;4963;51.444;6.528;2024-01-30T04:43:53;21.03;;;12.67;;
9848;SDS011;4963;51.444;6.528;2024-01-30T04:46:20;14.83;;;11.70;;
9848;SDS011;4963;51.444;6.528;2024-01-30T04:48:47;14.73;;;11.00;;
9848;SDS011;4963;51.444;6.528;2024-01-30T04:51:14;14.43;;;9.97;;
9848;SDS011;4963;51.444;6.528;2024-01-30T04:53:41;17.30;;;11.17;;
9848;SDS011;4963;51.444;6.528;2024-01-30T04:56:09;16.43;;;10.70;;
9848;SDS011;4963;51.444;6.528;2024-01-30T04:58:36;15.83;;;10.87;;
9848;SDS011;4963;51.444;6.528;2024-01-30T05:01:03;15.73;;;10.57;;
9848;SDS011;4963;51.444;6.528;2024-01-30T05:03:32;15.97;;;10.43;;
9848;SDS011;4963;51.444;6.528;2024-01-30T05:06:00;15.03;;;10.20;;
9848;SDS011;4963;51.444;6.528;2024-01-30T05:08:27;14.30;;;10.40;;
9848;SDS011;4963;51.444;6.528;2024-01-30T05:10:54;13.50;;;9.83;;
9848;SDS011;4963;51.444;6.528;2024-01-30T05:13:23;13.07;;;10.13;;
9848;SDS011;4963;51.444;6.528;2024-01-30T05:15:49;15.37;;;9.47;;
9848;SDS011;4963;51.444;6.528;2024-01-30T05:18:16;13.97;;;10.33;;
9848;SDS011;4963;51.444;6.528;2024-01-30T05:20:43;13.37;;;10.30;;
9848;SDS011;4963;51.444;6.528;2024-01-30T05:23:10;10.23;;;8.90;;
9848;SDS011;4963;51.444;6.528;2024-01-30T05:25:37;13.20;;;10.10;;
9848;SDS011;4963;51.444;6.528;2024-01-30T05:28:08;12.33;;;9.63;;
9848;SDS011;4963;51.444;6.528;2024-01-30T05:30:37;12.97;;;9.97;;
9848;SDS011;4963;51.444;6.528;2024-01-30T05:33:03;13.97;;;9.60;;
9848;SDS011;4963;51.444;6.528;2024-01-30T05:35:30;11.00;;;9.13;;
9848;SDS011;4963;51.444;6.528;2024-01-30T05:37:57;14.10;;;9.23;;
9848;SDS011;4963;51.444;6.528;2024-01-30T05:40:24;12.87;;;9.23;;
9848;SDS011;4963;51.444;6.528;2024-01-30T05:42:51;12.93;;;10.03;;
9848;SDS011;4963;51.444;6.528;2024-01-30T05:45:18;15.10;;;10.20;;
9848;SDS011;4963;51.444;6.528;2024-01-30T05:47:46;12.80;;;9.33;;
9848;SDS011;4963;51.444;6.528;2024-01-30T05:50:13;12.63;;;9.77;;
9848;SDS011;4963;51.444;6.528;2024-01-30T05:52:41;12.70;;;9.93;;
9848;SDS011;4963;51.444;6.528;2024-01-30T05:55:08;15.10;;;9.97;;
9848;SDS011;4963;51.444;6.528;2024-01-30T05:57:36;17.07;;;10.03;;
9848;SDS011;4963;51.444;6.528;2024-01-30T06:00:04;13.67;;;10.20;;
9848;SDS011;4963;51.444;6.528;2024-01-30T06:02:33;14.30;;;9.63;;
9848;SDS011;4963;51.444;6.528;2024-01-30T06:05:02;13.13;;;9.93;;
9848;SDS011;4963;51.444;6.528;2024-01-30T06:07:29;11.07;;;8.67;;
9848;SDS011;4963;51.444;6.528;2024-01-30T06:09:56;13.93;;;10.07;;
9848;SDS011;4963;51.444;6.528;2024-01-30T06:12:23;16.03;;;9.57;;
9848;SDS011;4963;51.444;6.528;2024-01-30T06:14:51;12.70;;;9.07;;
9848;SDS011;4963;51.444;6.528;2024-01-30T06:17:19;12.70;;;9.63;;
9848;SDS011;4963;51.444;6.528;2024-01-30T06:19:46;18.80;;;10.73;;
9848;SDS011;4963;51.444;6.528;2024-01-30T06:22:14;13.00;;;9.37;;
9848;SDS011;4963;51.444;6.528;2024-01-30T06:24:42;17.53;;;10.53;;
9848;SDS011;4963;51.444;6.528;2024-01-30T06:27:10;16.30;;;10.37;;
9848;SDS011;4963;51.444;6.528;2024-01-30T06:29:37;15.90;;;10.70;;
9848;SDS011;4963;51.444;6.528;2024-01-30T06:32:04;16.60;;;10.03;;
9848;SDS011;4963;51.444;6.528;2024-01-30T06:34:31;16.33;;;9.10;;
9848;SDS011;4963;51.444;6.528;2024-01-30T06:36:58;15.60;;;9.80;;
9848;SDS011;4963;51.444;6.528;2024-01-30T06:39:27;14.07;;;10.13;;
9848;SDS011;4963;51.444;6.528;2024-01-30T06:41:54;10.97;;;8.63;;
9848;SDS011;4963;51.444;6.528;2024-01-30T06:44:21;14.63;;;9.27;;
9848;SDS011;4963;51.444;6.528;2024-01-30T06:46:48;11.83;;;9.37;;
9848;SDS011;4963;51.444;6.528;2024-01-30T06:49:15;12.20;;;9.30;;
9848;SDS011;4963;51.444;6.528;2024-01-30T06:51:42;15.67;;;9.93;;
9848;SDS011;4963;51.444;6.528;2024-01-30T06:54:09;11.87;;;9.47;;
9848;SDS011;4963;51.444;6.528;2024-01-30T06:56:38;15.67;;;10.10;;
9848;SDS011;4963;51.444;6.528;2024-01-30T06:59:05;12.17;;;9.50;;
9848;SDS011;4963;51.444;6.528;2024-01-30T07:01:33;15.80;;;9.57;;
9848;SDS011;4963;51.444;6.528;2024-01-30T07:04:00;12.93;;;9.27;;
9848;SDS011;4963;51.444;6.528;2024-01-30T07:06:27;14.07;;;9.03;;
9848;SDS011;4963;51.444;6.528;2024-01-30T07:08:54;12.93;;;9.10;;
9848;SDS011;4963;51.444;6.528;2024-01-30T07:11:21;15.90;;;10.00;;
9848;SDS011;4963;51.444;6.528;2024-01-30T07:13:50;16.83;;;9.33;;
9848;SDS011;4963;51.444;6.528;2024-01-30T07:16:17;12.60;;;9.87;;
9848;SDS011;4963;51.444;6.528;2024-01-30T07:18:44;13.77;;;9.60;;
9848;SDS011;4963;51.444;6.528;2024-01-30T07:21:11;14.67;;;9.27;;
9848;SDS011;4963;51.444;6.528;2024-01-30T07:23:38;11.70;;;8.90;;
9848;SDS011;4963;51.444;6.528;2024-01-30T07:26:06;12.60;;;8.43;;
9848;SDS011;4963;51.444;6.528;2024-01-30T07:28:33;12.33;;;9.23;;
9848;SDS011;4963;51.444;6.528;2024-01-30T07:31:02;13.90;;;8.60;;
9848;SDS011;4963;51.444;6.528;2024-01-30T07:33:30;14.87;;;8.30;;
9848;SDS011;4963;51.444;6.528;2024-01-30T07:35:57;11.57;;;8.63;;
9848;SDS011;4963;51.444;6.528;2024-01-30T07:38:23;12.70;;;9.80;;
9848;SDS011;4963;51.444;6.528;2024-01-30T07:40:50;13.63;;;9.20;;
9848;SDS011;4963;51.444;6.528;2024-01-30T07:43:17;11.00;;;8.33;;
9848;SDS011;4963;51.444;6.528;2024-01-30T07:45:45;12.43;;;9.57;;
9848;SDS011;4963;51.444;6.528;2024-01-30T07:48:14;12.30;;;9.23;;
9848;SDS011;4963;51.444;6.528;2024-01-30T07:50:41;10.60;;;8.07;;
9848;SDS011;4963;51.444;6.528;2024-01-30T07:53:08;13.13;;;9.10;;
9848;SDS011;4963;51.444;6.528;2024-01-30T07:55:35;11.77;;;8.60;;
9848;SDS011;4963;51.444;6.528;2024-01-30T07:58:02;12.50;;;8.87;;
9848;SDS011;4963;51.444;6.528;2024-01-30T08:00:29;14.10;;;9.63;;
9848;SDS011;4963;51.444;6.528;2024-01-30T08:02:57;16.87;;;9.43;;
9848;SDS011;4963;51.444;6.528;2024-01-30T08:05:26;11.47;;;8.83;;
9848;SDS011;4963;51.444;6.528;2024-01-30T08:07:53;16.83;;;9.03;;
9848;SDS011;4963;51.444;6.528;2024-01-30T08:10:20;11.83;;;9.33;;
9848;SDS011;4963;51.444;6.528;2024-01-30T08:12:47;12.60;;;9.27;;
9848;SDS011;4963;51.444;6.528;2024-01-30T08:15:14;13.70;;;9.27;;
9848;SDS011;4963;51.444;6.528;2024-01-30T08:17:41;15.20;;;9.07;;
9848;SDS011;4963;51.444;6.528;2024-01-30T08:20:10;14.63;;;9.43;;
9848;SDS011;4963;51.444;6.528;2024-01-30T08:22:40;13.37;;;9.07;;
9848;SDS011;4963;51.444;6.528;2024-01-30T08:25:07;16.30;;;9.80;;
9848;SDS011;4963;51.444;6.528;2024-01-30T08:27:34;16.40;;;9.67;;
9848;SDS011;4963;51.444;6.528;2024-01-30T08:30:03;13.23;;;9.57;;
9848;SDS011;4963;51.444;6.528;2024-01-30T08:32:31;12.97;;;9.03;;
9848;SDS011;4963;51.444;6.528;2024-01-30T08:34:59;16.97;;;9.73;;
9848;SDS011;4963;51.444;6.528;2024-01-30T08:37:29;15.07;;;10.03;;
9848;SDS011;4963;51.444;6.528;2024-01-30T08:39:58;13.27;;;9.03;;
9848;SDS011;4963;51.444;6.528;2024-01-30T08:42:25;11.63;;;8.90;;
9848;SDS011;4963;51.444;6.528;2024-01-30T08:44:51;16.20;;;9.93;;
9848;SDS011;4963;51.444;6.528;2024-01-30T08:47:19;14.13;;;9.77;;
9848;SDS011;4963;51.444;6.528;2024-01-30T08:49:46;12.80;;;9.37;;
9848;SDS011;4963;51.444;6.528;2024-01-30T08:52:13;12.27;;;8.73;;
9848;SDS011;4963;51.444;6.528;2024-01-30T08:54:40;13.00;;;8.90;;
9848;SDS011;4963;51.444;6.528;2024-01-30T08:57:08;16.77;;;10.30;;
9848;SDS011;4963;51.444;6.528;2024-01-30T08:59:36;11.50;;;9.20;;
9848;SDS011;4963;51.444;6.528;2024-01-30T09:02:03;11.17;;;9.07;;
9848;SDS011;4963;51.444;6.528;2024-01-30T09:04:31;12.37;;;8.50;;
9848;SDS011;4963;51.444;6.528;2024-01-30T09:06:58;13.93;;;8.93;;
9848;SDS011;4963;51.444;6.528;2024-01-30T09:09:25;14.93;;;9.73;;
9848;SDS011;4963;51.444;6.528;2024-01-30T09:11:52;16.17;;;9.83;;
9848;SDS011;4963;51.444;6.528;2024-01-30T09:14:20;16.53;;;10.03;;
9848;SDS011;4963;51.444;6.528;2024-01-30T09:16:47;12.87;;;9.10;;
9848;SDS011;4963;51.444;6.528;2024-01-30T09:19:14;13.30;;;9.97;;
9848;SDS011;4963;51.444;6.528;2024-01-30T09:21:42;14.73;;;10.00;;
9848;SDS011;4963;51.444;6.528;2024-01-30T09:24:08;12.87;;;9.43;;
9848;SDS011;4963;51.444;6.528;2024-01-30T09:26:35;16.47;;;10.63;;
9848;SDS011;4963;51.444;6.528;2024-01-30T09:29:02;11.57;;;8.93;;
9848;SDS011;4963;51.444;6.528;2024-01-30T09:31:31;14.80;;;9.83;;
9848;SDS011;4963;51.444;6.528;2024-01-30T09:33:58;14.93;;;9.20;;
9848;SDS011;4963;51.444;6.528;2024-01-30T09:36:24;14.33;;;10.40;;
9848;SDS011;4963;51.444;6.528;2024-01-30T09:38:52;14.20;;;9.80;;
9848;SDS011;4963;51.444;6.528;2024-01-30T09:41:19;12.87;;;8.50;;
9848;SDS011;4963;51.444;6.528;2024-01-30T09:43:49;14.20;;;9.80;;
9848;SDS011;4963;51.444;6.528;2024-01-30T09:46:17;12.60;;;9.03;;
9848;SDS011;4963;51.444;6.528;2024-01-30T09:48:46;14.80;;;10.20;;
9848;SDS011;4963;51.444;6.528;2024-01-30T09:51:14;14.90;;;9.57;;
9848;SDS011;4963;51.444;6.528;2024-01-30T09:53:41;13.67;;;9.20;;
9848;SDS011;4963;51.444;6.528;2024-01-30T09:56:10;12.80;;;9.97;;
9848;SDS011;4963;51.444;6.528;2024-01-30T09:58:38;13.37;;;9.33;;
9848;SDS011;4963;51.444;6.528;2024-01-30T10:01:05;12.03;;;9.53;;
9848;SDS011;4963;51.444;6.528;2024-01-30T10:03:32;14.03;;;10.00;;
9848;SDS011;4963;51.444;6.528;2024-01-30T10:06:01;12.40;;;9.50;;
9848;SDS011;4963;51.444;6.528;2024-01-30T10:08:28;12.27;;;9.37;;
9848;SDS011;4963;51.444;6.528;2024-01-30T10:10:55;12.67;;;8.80;;
9848;SDS011;4963;51.444;6.528;2024-01-30T10:13:21;11.77;;;9.00;;
9848;SDS011;4963;51.444;6.528;2024-01-30T10:15:48;13.13;;;8.97;;
9848;SDS011;4963;51.444;6.528;2024-01-30T10:18:16;13.30;;;9.07;;
9848;SDS011;4963;51.444;6.528;2024-01-30T10:20:45;12.67;;;9.60;;
9848;SDS011;4963;51.444;6.528;2024-01-30T10:23:13;12.73;;;9.03;;
9848;SDS011;4963;51.444;6.528;2024-01-30T10:25:42;15.00;;;9.03;;
9848;SDS011;4963;51.444;6.528;2024-01-30T10:28:09;14.77;;;9.23;;
9848;SDS011;4963;51.444;6.528;2024-01-30T10:30:36;11.57;;;9.30;;
9848;SDS011;4963;51.444;6.528;2024-01-30T10:33:03;14.57;;;9.93;;
9848;SDS011;4963;51.444;6.528;2024-01-30T10:35:30;11.03;;;8.60;;
9848;SDS011;4963;51.444;6.528;2024-01-30T10:37:58;15.20;;;9.13;;
9848;SDS011;4963;51.444;6.528;2024-01-30T10:40:27;12.60;;;8.67;;
9848;SDS011;4963;51.444;6.528;2024-01-30T10:42:55;12.33;;;8.43;;
9848;SDS011;4963;51.444;6.528;2024-01-30T10:45:22;12.10;;;8.67;;
9848;SDS011;4963;51.444;6.528;2024-01-30T10:47:53;10.57;;;8.47;;
9848;SDS011;4963;51.444;6.528;2024-01-30T10:50:22;14.40;;;9.90;;
9848;SDS011;4963;51.444;6.528;2024-01-30T10:52:51;15.07;;;9.60;;
9848;SDS011;4963;51.444;6.528;2024-01-30T10:55:19;11.13;;;8.97;;
9848;SDS011;4963;51.444;6.528;2024-01-30T10:57:50;12.53;;;9.17;;
9848;SDS011;4963;51.444;6.528;2024-01-30T11:00:18;11.47;;;9.13;;
9848;SDS011;4963;51.444;6.528;2024-01-30T11:02:48;13.17;;;8.67;;
9848;SDS011;4963;51.444;6.528;2024-01-30T11:05:22;11.23;;;8.83;;
9848;SDS011;4963;51.444;6.528;2024-01-30T11:07:51;11.63;;;9.37;;
9848;SDS011;4963;51.444;6.528;2024-01-30T11:10:18;10.87;;;9.63;;
9848;SDS011;4963;51.444;6.528;2024-01-30T11:12:45;13.53;;;9.27;;
9848;SDS011;4963;51.444;6.528;2024-01-30T11:15:18;17.63;;;9.80;;
9848;SDS011;4963;51.444;6.528;2024-01-30T11:17:49;15.13;;;9.93;;
9848;SDS011;4963;51.444;6.528;2024-01-30T11:20:19;13.57;;;10.37;;
9848;SDS011;4963;51.444;6.528;2024-01-30T11:22:47;13.37;;;9.57;;
9848;SDS011;4963;51.444;6.528;2024-01-30T11:25:16;14.67;;;11.00;;
9848;SDS011;4963;51.444;6.528;2024-01-30T11:27:44;14.13;;;10.10;;
9848;SDS011;4963;51.444;6.528;2024-01-30T11:30:21;13.50;;;9.07;;
9848;SDS011;4963;51.444;6.528;2024-01-30T11:32:58;12.33;;;10.00;;
9848;SDS011;4963;51.444;6.528;2024-01-30T11:35:29;13.07;;;10.23;;
9848;SDS011;4963;51.444;6.528;2024-01-30T11:37:58;14.23;;;9.30;;
9848;SDS011;4963;51.444;6.528;2024-01-30T11:40:27;15.00;;;9.67;;
9848;SDS011;4963;51.444;6.528;2024-01-30T11:42:55;12.53;;;10.43;;
9848;SDS011;4963;51.444;6.528;2024-01-30T11:45:23;13.17;;;9.13;;
9848;SDS011;4963;51.444;6.528;2024-01-30T11:47:50;11.10;;;9.10;;
9848;SDS011;4963;51.444;6.528;2024-01-30T11:50:17;14.03;;;9.07;;
9848;SDS011;4963;51.444;6.528;2024-01-30T11:52:44;13.27;;;9.70;;
9848;SDS011;4963;51.444;6.528;2024-01-30T11:55:11;12.43;;;9.33;;
9848;SDS011;4963;51.444;6.528;2024-01-30T11:57:39;13.00;;;9.03;;
9848;SDS011;4963;51.444;6.528;2024-01-30T12:00:06;13.73;;;9.80;;
9848;SDS011;4963;51.444;6.528;2024-01-30T12:02:42;11.63;;;9.10;;
9848;SDS011;4963;51.444;6.528;2024-01-30T12:05:09;15.53;;;9.93;;
9848;SDS011;4963;51.444;6.528;2024-01-30T12:07:36;13.77;;;8.90;;
9848;SDS011;4963;51.444;6.528;2024-01-30T12:10:04;14.80;;;9.73;;
9848;SDS011;4963;51.444;6.528;2024-01-30T12:12:33;11.13;;;9.93;;
9848;SDS011;4963;51.444;6.528;2024-01-30T12:15:00;12.73;;;9.47;;
9848;SDS011;4963;51.444;6.528;2024-01-30T12:17:28;15.53;;;9.17;;
9848;SDS011;4963;51.444;6.528;2024-01-30T12:20:06;13.23;;;9.30;;
9848;SDS011;4963;51.444;6.528;2024-01-30T12:22:35;17.40;;;10.00;;
9848;SDS011;4963;51.444;6.528;2024-01-30T12:25:04;13.63;;;9.37;;
9848;SDS011;4963;51.444;6.528;2024-01-30T12:27:31;15.07;;;8.67;;
9848;SDS011;4963;51.444;6.528;2024-01-30T12:29:58;16.00;;;9.13;;
9848;SDS011;4963;51.444;6.528;2024-01-30T12:32:25;12.93;;;8.73;;
9848;SDS011;4963;51.444;6.528;2024-01-30T12:34:54;13.63;;;8.90;;
9848;SDS011;4963;51.444;6.528;2024-01-30T12:37:24;12.20;;;8.73;;
9848;SDS011;4963;51.444;6.528;2024-01-30T12:39:51;10.47;;;8.37;;
9848;SDS011;4963;51.444;6.528;2024-01-30T12:42:19;11.60;;;7.40;;
9848;SDS011;4963;51.444;6.528;2024-01-30T12:44:47;11.43;;;7.27;;
9848;SDS011;4963;51.444;6.528;2024-01-30T12:47:14;12.37;;;7.17;;
9848;SDS011;4963;51.444;6.528;2024-01-30T12:49:42;12.00;;;7.50;;
9848;SDS011;4963;51.444;6.528;2024-01-30T12:52:10;13.33;;;7.43;;
9848;SDS011;4963;51.444;6.528;2024-01-30T12:54:39;12.57;;;7.10;;
9848;SDS011;4963;51.444;6.528;2024-01-30T12:57:06;12.87;;;7.80;;
9848;SDS011;4963;51.444;6.528;2024-01-30T12:59:33;14.57;;;7.33;;
9848;SDS011;4963;51.444;6.528;2024-01-30T13:02:00;11.83;;;7.10;;
9848;SDS011;4963;51.444;6.528;2024-01-30T13:04:28;16.50;;;7.60;;
9848;SDS011;4963;51.444;6.528;2024-01-30T13:06:55;15.33;;;7.70;;
9848;SDS011;4963;51.444;6.528;2024-01-30T13:09:23;11.73;;;6.57;;
9848;SDS011;4963;51.444;6.528;2024-01-30T13:11:51;13.33;;;7.23;;
9848;SDS011;4963;51.444;6.528;2024-01-30T13:14:18;10.07;;;6.47;;
9848;SDS011;4963;51.444;6.528;2024-01-30T13:16:45;11.40;;;6.90;;
9848;SDS011;4963;51.444;6.528;2024-01-30T13:19:12;9.27;;;6.93;;
9848;SDS011;4963;51.444;6.528;2024-01-30T13:21:39;12.17;;;7.27;;
9848;SDS011;4963;51.444;6.528;2024-01-30T13:24:06;9.73;;;6.87;;
9848;SDS011;4963;51.444;6.528;2024-01-30T13:26:33;14.07;;;7.53;;
9848;SDS011;4963;51.444;6.528;2024-01-30T13:29:02;13.80;;;7.07;;
9848;SDS011;4963;51.444;6.528;2024-01-30T13:31:29;8.83;;;6.23;;
9848;SDS011;4963;51.444;6.528;2024-01-30T13:33:56;9.67;;;6.87;;
9848;SDS011;4963;51.444;6.528;2024-01-30T13:36:23;14.13;;;6.73;;
9848;SDS011;4963;51.444;6.528;2024-01-30T13:38:50;14.53;;;7.67;;
9848;SDS011;4963;51.444;6.528;2024-01-30T13:41:17;10.97;;;6.87;;
9848;SDS011;4963;51.444;6.528;2024-01-30T13:43:44;15.20;;;7.93;;
9848;SDS011;4963;51.444;6.528;2024-01-30T13:46:12;13.03;;;7.50;;
9848;SDS011;4963;51.444;6.528;2024-01-30T13:48:39;10.07;;;6.90;;
9848;SDS011;4963;51.444;6.528;2024-01-30T13:51:06;11.63;;;7.00;;
9848;SDS011;4963;51.444;6.528;2024-01-30T13:53:33;9.77;;;6.90;;
9848;SDS011;4963;51.444;6.528;2024-01-30T13:56:00;8.93;;;6.90;;
9848;SDS011;4963;51.444;6.528;2024-01-30T13:58:27;10.03;;;7.00;;
9848;SDS011;4963;51.444;6.528;2024-01-30T14:00:54;11.63;;;6.33;;
9848;SDS011;4963;51.444;6.528;2024-01-30T14:03:22;8.03;;;5.90;;
9848;SDS011;4963;51.444;6.528;2024-01-30T14:05:49;9.97;;;6.43;;
9848;SDS011;4963;51.444;6.528;2024-01-30T14:08:16;11.23;;;6.23;;
9848;SDS011;4963;51.444;6.528;2024-01-30T14:10:43;11.67;;;6.83;;
9848;SDS011;4963;51.444;6.528;2024-01-30T14:13:09;10.77;;;6.47;;
9848;SDS011;4963;51.444;6.528;2024-01-30T14:15:37;9.30;;;7.37;;
9848;SDS011;4963;51.444;6.528;2024-01-30T14:18:04;12.50;;;7.60;;
9848;SDS011;4963;51.444;6.528;2024-01-30T14:20:34;12.23;;;7.40;;
9848;SDS011;4963;51.444;6.528;2024-01-30T14:23:01;11.07;;;6.27;;
9848;SDS011;4963;51.444;6.528;2024-01-30T14:25:28;8.83;;;5.50;;
9848;SDS011;4963;51.444;6.528;2024-01-30T14:27:55;7.40;;;3.80;;
9848;SDS011;4963;51.444;6.528;2024-01-30T14:30:22;7.07;;;4.70;;
9848;SDS011;4963;51.444;6.528;2024-01-30T14:32:49;8.17;;;4.07;;
9848;SDS011;4963;51.444;6.528;2024-01-30T14:35:16;4.63;;;3.50;;
9848;SDS011;4963;51.444;6.528;2024-01-30T14:37:45;7.57;;;3.80;;
9848;SDS011;4963;51.444;6.528;2024-01-30T14:40:12;6.53;;;3.40;;
9848;SDS011;4963;51.444;6.528;2024-01-30T14:42:40;7.23;;;3.47;;
9848;SDS011;4963;51.444;6.528;2024-01-30T14:45:07;4.07;;;3.03;;
9848;SDS011;4963;51.444;6.528;2024-01-30T14:47:34;6.17;;;3.60;;
9848;SDS011;4963;51.444;6.528;2024-01-30T14:50:02;8.97;;;2.90;;
9848;SDS011;4963;51.444;6.528;2024-01-30T14:52:30;5.50;;;3.10;;
9848;SDS011;4963;51.444;6.528;2024-01-30T14:54:58;6.30;;;3.47;;
9848;SDS011;4963;51.444;6.528;2024-01-30T14:57:25;7.67;;;3.33;;
9848;SDS011;4963;51.444;6.528;2024-01-30T14:59:54;6.97;;;2.87;;